sensor_id;sensor_type;location;lat;lon;timestamp;P1;durP1;ratioP1;P2;durP2;ratioP2
33190;SDS011;19554;42.652;23.364;2022-10-16T00:00:33;17.02;;;9.55;;
33190;SDS011;19554;42.652;23.364;2022-10-16T00:02:59;13.80;;;10.05;;
33190;SDS011;19554;42.652;23.364;2022-10-16T00:05:25;14.07;;;10.27;;
33190;SDS011;19554;42.652;23.364;2022-10-16T00:07:50;15.48;;;10.73;;
33190;SDS011;19554;42.652;23.364;2022-10-16T00:10:16;16.92;;;10.13;;
33190;SDS011;19554;42.652;23.364;2022-10-16T00:12:41;17.92;;;10.07;;
33190;SDS011;19554;42.652;23.364;2022-10-16T00:15:07;16.35;;;9.65;;
33190;SDS011;19554;42.652;23.364;2022-10-16T00:17:33;18.20;;;10.10;;
33190;SDS011;19554;42.652;23.364;2022-10-16T00:19:58;13.27;;;9.60;;
33190;SDS011;19554;42.652;23.364;2022-10-16T00:22:23;20.48;;;10.43;;
33190;SDS011;19554;42.652;23.364;2022-10-16T00:24:49;18.52;;;10.07;;
33190;SDS011;19554;42.652;23.364;2022-10-16T00:27:15;28.63;;;10.88;;
33190;SDS011;19554;42.652;23.364;2022-10-16T00:29:41;22.95;;;10.75;;
33190;SDS011;19554;42.652;23.364;2022-10-16T00:32:06;15.50;;;10.38;;
33190;SDS011;19554;42.652;23.364;2022-10-16T00:34:32;16.20;;;10.85;;
33190;SDS011;19554;42.652;23.364;2022-10-16T00:36:57;21.83;;;12.07;;
33190;SDS011;19554;42.652;23.364;2022-10-16T00:39:23;18.02;;;11.73;;
33190;SDS011;19554;42.652;23.364;2022-10-16T00:41:48;21.05;;;12.77;;
33190;SDS011;19554;42.652;23.364;2022-10-16T00:47:10;21.45;;;14.82;;
33190;SDS011;19554;42.652;23.364;2022-10-16T00:49:40;24.90;;;13.75;;
33190;SDS011;19554;42.652;23.364;2022-10-16T00:52:06;24.13;;;14.27;;
33190;SDS011;19554;42.652;23.364;2022-10-16T00:54:32;24.30;;;11.90;;
33190;SDS011;19554;42.652;23.364;2022-10-16T00:57:02;17.60;;;10.45;;
33190;SDS011;19554;42.652;23.364;2022-10-16T00:59:31;27.73;;;11.45;;
33190;SDS011;19554;42.652;23.364;2022-10-16T01:01:59;14.20;;;10.57;;
33190;SDS011;19554;42.652;23.364;2022-10-16T01:04:25;23.92;;;10.30;;
33190;SDS011;19554;42.652;23.364;2022-10-16T01:15:26;16.33;;;9.48;;
33190;SDS011;19554;42.652;23.364;2022-10-16T01:18:00;14.60;;;8.90;;
33190;SDS011;19554;42.652;23.364;2022-10-16T01:20:54;28.38;;;10.05;;
33190;SDS011;19554;42.652;23.364;2022-10-16T01:28:53;18.25;;;12.00;;
33190;SDS011;19554;42.652;23.364;2022-10-16T01:31:23;14.02;;;9.82;;
33190;SDS011;19554;42.652;23.364;2022-10-16T01:34:28;18.10;;;9.43;;
33190;SDS011;19554;42.652;23.364;2022-10-16T01:36:49;12.25;;;8.60;;
33190;SDS011;19554;42.652;23.364;2022-10-16T01:39:20;15.30;;;9.50;;
33190;SDS011;19554;42.652;23.364;2022-10-16T01:44:41;14.38;;;9.50;;
33190;SDS011;19554;42.652;23.364;2022-10-16T01:47:10;13.32;;;10.05;;
33190;SDS011;19554;42.652;23.364;2022-10-16T01:49:38;17.17;;;8.93;;
33190;SDS011;19554;42.652;23.364;2022-10-16T01:52:06;14.60;;;8.60;;
33190;SDS011;19554;42.652;23.364;2022-10-16T01:54:37;14.45;;;9.13;;
33190;SDS011;19554;42.652;23.364;2022-10-16T01:57:07;14.38;;;9.63;;
33190;SDS011;19554;42.652;23.364;2022-10-16T01:59:35;16.52;;;9.48;;
33190;SDS011;19554;42.652;23.364;2022-10-16T02:02:05;13.13;;;9.18;;
33190;SDS011;19554;42.652;23.364;2022-10-16T02:04:36;18.75;;;9.60;;
33190;SDS011;19554;42.652;23.364;2022-10-16T02:07:05;10.45;;;7.88;;
33190;SDS011;19554;42.652;23.364;2022-10-16T02:09:33;11.48;;;7.60;;
33190;SDS011;19554;42.652;23.364;2022-10-16T02:12:00;11.27;;;7.88;;
33190;SDS011;19554;42.652;23.364;2022-10-16T02:14:31;12.88;;;8.38;;
33190;SDS011;19554;42.652;23.364;2022-10-16T02:16:57;16.77;;;9.30;;
33190;SDS011;19554;42.652;23.364;2022-10-16T02:19:23;13.68;;;8.55;;
33190;SDS011;19554;42.652;23.364;2022-10-16T02:22:00;13.02;;;8.90;;
33190;SDS011;19554;42.652;23.364;2022-10-16T02:29:35;12.30;;;9.18;;
33190;SDS011;19554;42.652;23.364;2022-10-16T02:32:06;13.13;;;8.95;;
33190;SDS011;19554;42.652;23.364;2022-10-16T02:34:33;14.82;;;8.45;;
33190;SDS011;19554;42.652;23.364;2022-10-16T02:37:00;16.45;;;9.43;;
33190;SDS011;19554;42.652;23.364;2022-10-16T02:39:29;15.63;;;9.52;;
33190;SDS011;19554;42.652;23.364;2022-10-16T02:41:55;15.38;;;9.15;;
33190;SDS011;19554;42.652;23.364;2022-10-16T02:44:20;20.00;;;9.10;;
33190;SDS011;19554;42.652;23.364;2022-10-16T02:46:46;12.73;;;8.98;;
33190;SDS011;19554;42.652;23.364;2022-10-16T02:49:11;13.20;;;8.45;;
33190;SDS011;19554;42.652;23.364;2022-10-16T02:51:36;17.10;;;9.60;;
33190;SDS011;19554;42.652;23.364;2022-10-16T02:54:02;17.02;;;9.00;;
33190;SDS011;19554;42.652;23.364;2022-10-16T02:56:28;13.95;;;8.68;;
33190;SDS011;19554;42.652;23.364;2022-10-16T02:58:55;13.73;;;8.73;;
33190;SDS011;19554;42.652;23.364;2022-10-16T03:01:20;12.68;;;8.75;;
33190;SDS011;19554;42.652;23.364;2022-10-16T03:03:46;12.50;;;8.45;;
33190;SDS011;19554;42.652;23.364;2022-10-16T03:06:11;12.60;;;8.98;;
33190;SDS011;19554;42.652;23.364;2022-10-16T03:08:37;17.10;;;9.00;;
33190;SDS011;19554;42.652;23.364;2022-10-16T03:11:02;19.80;;;8.68;;
33190;SDS011;19554;42.652;23.364;2022-10-16T03:13:28;11.05;;;7.93;;
33190;SDS011;19554;42.652;23.364;2022-10-16T03:15:53;15.13;;;8.75;;
33190;SDS011;19554;42.652;23.364;2022-10-16T03:18:18;15.38;;;10.38;;
33190;SDS011;19554;42.652;23.364;2022-10-16T03:20:44;20.40;;;10.20;;
33190;SDS011;19554;42.652;23.364;2022-10-16T03:23:10;17.30;;;9.13;;
33190;SDS011;19554;42.652;23.364;2022-10-16T03:25:35;12.30;;;8.27;;
33190;SDS011;19554;42.652;23.364;2022-10-16T03:28:00;14.35;;;8.35;;
33190;SDS011;19554;42.652;23.364;2022-10-16T03:30:26;15.00;;;8.68;;
33190;SDS011;19554;42.652;23.364;2022-10-16T03:32:52;16.15;;;9.48;;
33190;SDS011;19554;42.652;23.364;2022-10-16T03:35:21;10.48;;;8.20;;
33190;SDS011;19554;42.652;23.364;2022-10-16T03:37:46;12.57;;;7.60;;
33190;SDS011;19554;42.652;23.364;2022-10-16T03:40:12;13.13;;;7.22;;
33190;SDS011;19554;42.652;23.364;2022-10-16T03:42:37;10.32;;;7.85;;
33190;SDS011;19554;42.652;23.364;2022-10-16T03:45:03;10.75;;;7.93;;
33190;SDS011;19554;42.652;23.364;2022-10-16T03:47:29;13.60;;;7.53;;
33190;SDS011;19554;42.652;23.364;2022-10-16T03:49:54;8.68;;;6.90;;
33190;SDS011;19554;42.652;23.364;2022-10-16T03:52:19;11.52;;;7.30;;
33190;SDS011;19554;42.652;23.364;2022-10-16T03:54:45;11.60;;;7.05;;
33190;SDS011;19554;42.652;23.364;2022-10-16T03:57:10;15.02;;;6.88;;
33190;SDS011;19554;42.652;23.364;2022-10-16T03:59:36;12.55;;;8.48;;
33190;SDS011;19554;42.652;23.364;2022-10-16T04:02:01;12.80;;;8.60;;
33190;SDS011;19554;42.652;23.364;2022-10-16T04:04:27;11.25;;;8.27;;
33190;SDS011;19554;42.652;23.364;2022-10-16T04:06:52;13.93;;;8.38;;
33190;SDS011;19554;42.652;23.364;2022-10-16T04:09:17;12.68;;;8.05;;
33190;SDS011;19554;42.652;23.364;2022-10-16T04:11:43;13.30;;;8.45;;
33190;SDS011;19554;42.652;23.364;2022-10-16T04:14:08;18.00;;;8.93;;
33190;SDS011;19554;42.652;23.364;2022-10-16T04:16:34;13.15;;;8.15;;
33190;SDS011;19554;42.652;23.364;2022-10-16T04:18:59;16.90;;;10.18;;
33190;SDS011;19554;42.652;23.364;2022-10-16T04:21:24;14.52;;;9.90;;
33190;SDS011;19554;42.652;23.364;2022-10-16T04:23:50;15.75;;;10.63;;
33190;SDS011;19554;42.652;23.364;2022-10-16T04:26:15;20.52;;;9.50;;
33190;SDS011;19554;42.652;23.364;2022-10-16T04:28:40;13.40;;;9.00;;
33190;SDS011;19554;42.652;23.364;2022-10-16T04:31:06;16.10;;;9.07;;
33190;SDS011;19554;42.652;23.364;2022-10-16T04:33:32;18.17;;;9.18;;
33190;SDS011;19554;42.652;23.364;2022-10-16T04:35:58;14.10;;;8.65;;
33190;SDS011;19554;42.652;23.364;2022-10-16T04:38:25;19.42;;;9.02;;
33190;SDS011;19554;42.652;23.364;2022-10-16T04:40:50;14.63;;;8.02;;
33190;SDS011;19554;42.652;23.364;2022-10-16T04:43:16;17.15;;;9.38;;
33190;SDS011;19554;42.652;23.364;2022-10-16T04:45:42;21.92;;;11.60;;
33190;SDS011;19554;42.652;23.364;2022-10-16T04:48:07;19.77;;;10.70;;
33190;SDS011;19554;42.652;23.364;2022-10-16T04:50:32;21.13;;;10.40;;
33190;SDS011;19554;42.652;23.364;2022-10-16T04:52:58;15.30;;;9.40;;
33190;SDS011;19554;42.652;23.364;2022-10-16T04:55:23;21.85;;;11.05;;
33190;SDS011;19554;42.652;23.364;2022-10-16T04:57:49;19.73;;;11.43;;
33190;SDS011;19554;42.652;23.364;2022-10-16T05:00:14;31.35;;;15.75;;
33190;SDS011;19554;42.652;23.364;2022-10-16T05:02:40;28.85;;;12.13;;
33190;SDS011;19554;42.652;23.364;2022-10-16T05:05:05;22.38;;;11.15;;
33190;SDS011;19554;42.652;23.364;2022-10-16T05:07:31;34.38;;;12.73;;
33190;SDS011;19554;42.652;23.364;2022-10-16T05:09:56;22.20;;;11.75;;
33190;SDS011;19554;42.652;23.364;2022-10-16T05:12:21;27.15;;;11.35;;
33190;SDS011;19554;42.652;23.364;2022-10-16T05:14:47;29.13;;;12.75;;
33190;SDS011;19554;42.652;23.364;2022-10-16T05:17:12;24.65;;;11.40;;
33190;SDS011;19554;42.652;23.364;2022-10-16T05:19:38;30.23;;;12.77;;
33190;SDS011;19554;42.652;23.364;2022-10-16T05:22:03;19.27;;;11.52;;
33190;SDS011;19554;42.652;23.364;2022-10-16T05:24:28;15.77;;;10.18;;
33190;SDS011;19554;42.652;23.364;2022-10-16T05:26:54;18.92;;;10.25;;
33190;SDS011;19554;42.652;23.364;2022-10-16T05:29:19;14.73;;;9.68;;
33190;SDS011;19554;42.652;23.364;2022-10-16T05:31:45;14.95;;;8.60;;
33190;SDS011;19554;42.652;23.364;2022-10-16T05:34:10;17.92;;;9.15;;
33190;SDS011;19554;42.652;23.364;2022-10-16T05:36:36;13.90;;;8.80;;
33190;SDS011;19554;42.652;23.364;2022-10-16T05:39:01;23.92;;;9.10;;
33190;SDS011;19554;42.652;23.364;2022-10-16T05:41:27;16.92;;;9.13;;
33190;SDS011;19554;42.652;23.364;2022-10-16T05:43:52;13.35;;;8.80;;
33190;SDS011;19554;42.652;23.364;2022-10-16T05:46:18;17.10;;;8.82;;
33190;SDS011;19554;42.652;23.364;2022-10-16T05:48:44;18.17;;;8.40;;
33190;SDS011;19554;42.652;23.364;2022-10-16T05:51:10;21.88;;;10.38;;
33190;SDS011;19554;42.652;23.364;2022-10-16T05:53:37;14.77;;;8.65;;
33190;SDS011;19554;42.652;23.364;2022-10-16T05:56:04;15.85;;;8.55;;
33190;SDS011;19554;42.652;23.364;2022-10-16T05:58:32;14.60;;;8.57;;
33190;SDS011;19554;42.652;23.364;2022-10-16T06:01:03;16.50;;;9.27;;
33190;SDS011;19554;42.652;23.364;2022-10-16T06:03:33;13.60;;;8.05;;
33190;SDS011;19554;42.652;23.364;2022-10-16T06:05:59;13.60;;;7.35;;
33190;SDS011;19554;42.652;23.364;2022-10-16T06:08:24;8.43;;;7.30;;
33190;SDS011;19554;42.652;23.364;2022-10-16T06:10:59;12.90;;;8.00;;
33190;SDS011;19554;42.652;23.364;2022-10-16T06:13:27;11.73;;;7.30;;
33190;SDS011;19554;42.652;23.364;2022-10-16T06:15:52;16.88;;;6.78;;
33190;SDS011;19554;42.652;23.364;2022-10-16T06:18:17;11.95;;;7.10;;
33190;SDS011;19554;42.652;23.364;2022-10-16T06:20:43;9.32;;;7.25;;
33190;SDS011;19554;42.652;23.364;2022-10-16T06:23:08;9.52;;;6.72;;
33190;SDS011;19554;42.652;23.364;2022-10-16T06:25:33;8.90;;;7.07;;
33190;SDS011;19554;42.652;23.364;2022-10-16T06:27:59;9.82;;;7.07;;
33190;SDS011;19554;42.652;23.364;2022-10-16T06:30:24;9.02;;;6.20;;
33190;SDS011;19554;42.652;23.364;2022-10-16T06:32:50;8.88;;;6.40;;
33190;SDS011;19554;42.652;23.364;2022-10-16T06:35:15;11.32;;;6.43;;
33190;SDS011;19554;42.652;23.364;2022-10-16T06:37:40;11.20;;;6.53;;
33190;SDS011;19554;42.652;23.364;2022-10-16T06:40:06;9.35;;;6.85;;
33190;SDS011;19554;42.652;23.364;2022-10-16T06:42:32;10.65;;;6.63;;
33190;SDS011;19554;42.652;23.364;2022-10-16T06:44:57;10.52;;;7.55;;
33190;SDS011;19554;42.652;23.364;2022-10-16T06:47:22;9.70;;;6.72;;
33190;SDS011;19554;42.652;23.364;2022-10-16T06:49:48;9.38;;;6.78;;
33190;SDS011;19554;42.652;23.364;2022-10-16T06:52:13;8.95;;;6.28;;
33190;SDS011;19554;42.652;23.364;2022-10-16T06:54:39;8.18;;;5.93;;
33190;SDS011;19554;42.652;23.364;2022-10-16T06:57:04;10.40;;;6.65;;
33190;SDS011;19554;42.652;23.364;2022-10-16T06:59:29;9.20;;;6.57;;
33190;SDS011;19554;42.652;23.364;2022-10-16T07:01:55;9.65;;;6.75;;
33190;SDS011;19554;42.652;23.364;2022-10-16T07:04:20;9.38;;;6.15;;
33190;SDS011;19554;42.652;23.364;2022-10-16T07:06:46;16.50;;;7.03;;
33190;SDS011;19554;42.652;23.364;2022-10-16T07:09:11;9.60;;;6.80;;
33190;SDS011;19554;42.652;23.364;2022-10-16T07:11:37;10.30;;;7.50;;
33190;SDS011;19554;42.652;23.364;2022-10-16T07:14:04;9.32;;;6.40;;
33190;SDS011;19554;42.652;23.364;2022-10-16T07:16:34;11.88;;;7.97;;
33190;SDS011;19554;42.652;23.364;2022-10-16T07:19:00;15.10;;;8.75;;
33190;SDS011;19554;42.652;23.364;2022-10-16T07:21:28;16.08;;;9.15;;
33190;SDS011;19554;42.652;23.364;2022-10-16T07:23:57;17.35;;;9.05;;
33190;SDS011;19554;42.652;23.364;2022-10-16T07:26:24;17.33;;;9.15;;
33190;SDS011;19554;42.652;23.364;2022-10-16T07:28:51;17.55;;;9.85;;
33190;SDS011;19554;42.652;23.364;2022-10-16T07:31:17;16.83;;;10.00;;
33190;SDS011;19554;42.652;23.364;2022-10-16T07:33:44;13.13;;;8.93;;
33190;SDS011;19554;42.652;23.364;2022-10-16T07:36:12;18.13;;;9.32;;
33190;SDS011;19554;42.652;23.364;2022-10-16T07:38:38;14.38;;;9.70;;
33190;SDS011;19554;42.652;23.364;2022-10-16T07:41:05;24.70;;;10.15;;
33190;SDS011;19554;42.652;23.364;2022-10-16T07:43:32;14.90;;;9.77;;
33190;SDS011;19554;42.652;23.364;2022-10-16T07:45:57;16.08;;;10.18;;
33190;SDS011;19554;42.652;23.364;2022-10-16T07:48:23;28.33;;;11.07;;
33190;SDS011;19554;42.652;23.364;2022-10-16T07:50:51;16.10;;;10.50;;
33190;SDS011;19554;42.652;23.364;2022-10-16T07:53:17;17.23;;;10.07;;
33190;SDS011;19554;42.652;23.364;2022-10-16T07:55:42;24.88;;;9.85;;
33190;SDS011;19554;42.652;23.364;2022-10-16T07:58:08;16.48;;;9.35;;
33190;SDS011;19554;42.652;23.364;2022-10-16T08:00:35;13.32;;;8.23;;
33190;SDS011;19554;42.652;23.364;2022-10-16T08:03:01;15.93;;;8.73;;
33190;SDS011;19554;42.652;23.364;2022-10-16T08:05:31;15.15;;;9.15;;
33190;SDS011;19554;42.652;23.364;2022-10-16T08:07:58;12.27;;;8.77;;
33190;SDS011;19554;42.652;23.364;2022-10-16T08:10:25;12.35;;;8.10;;
33190;SDS011;19554;42.652;23.364;2022-10-16T08:12:51;10.75;;;7.80;;
33190;SDS011;19554;42.652;23.364;2022-10-16T08:15:17;15.52;;;8.18;;
33190;SDS011;19554;42.652;23.364;2022-10-16T08:17:44;11.23;;;7.40;;
33190;SDS011;19554;42.652;23.364;2022-10-16T08:20:10;14.77;;;7.57;;
33190;SDS011;19554;42.652;23.364;2022-10-16T08:22:36;12.65;;;7.63;;
33190;SDS011;19554;42.652;23.364;2022-10-16T08:25:01;12.13;;;6.90;;
33190;SDS011;19554;42.652;23.364;2022-10-16T08:27:33;14.25;;;7.22;;
33190;SDS011;19554;42.652;23.364;2022-10-16T08:29:58;11.65;;;7.07;;
33190;SDS011;19554;42.652;23.364;2022-10-16T08:32:24;11.80;;;7.20;;
33190;SDS011;19554;42.652;23.364;2022-10-16T08:34:49;10.75;;;6.85;;
33190;SDS011;19554;42.652;23.364;2022-10-16T08:37:15;13.82;;;6.95;;
33190;SDS011;19554;42.652;23.364;2022-10-16T08:39:40;11.57;;;5.65;;
33190;SDS011;19554;42.652;23.364;2022-10-16T08:42:50;17.88;;;6.80;;
33190;SDS011;19554;42.652;23.364;2022-10-16T08:47:45;12.82;;;6.47;;
33190;SDS011;19554;42.652;23.364;2022-10-16T08:50:21;14.80;;;6.10;;
33190;SDS011;19554;42.652;23.364;2022-10-16T08:52:50;13.07;;;5.72;;
33190;SDS011;19554;42.652;23.364;2022-10-16T08:55:37;11.95;;;5.95;;
33190;SDS011;19554;42.652;23.364;2022-10-16T08:58:13;11.45;;;4.82;;
33190;SDS011;19554;42.652;23.364;2022-10-16T09:00:45;7.40;;;4.30;;
33190;SDS011;19554;42.652;23.364;2022-10-16T09:03:57;14.35;;;5.40;;
33190;SDS011;19554;42.652;23.364;2022-10-16T09:08:34;10.95;;;4.72;;
33190;SDS011;19554;42.652;23.364;2022-10-16T09:11:30;9.25;;;5.10;;
33190;SDS011;19554;42.652;23.364;2022-10-16T09:17:22;8.25;;;4.28;;
33190;SDS011;19554;42.652;23.364;2022-10-16T09:23:08;7.72;;;4.28;;
33190;SDS011;19554;42.652;23.364;2022-10-16T09:25:39;5.68;;;4.28;;
33190;SDS011;19554;42.652;23.364;2022-10-16T09:28:08;8.35;;;4.30;;
33190;SDS011;19554;42.652;23.364;2022-10-16T09:30:35;11.25;;;4.57;;
33190;SDS011;19554;42.652;23.364;2022-10-16T09:33:02;8.98;;;5.43;;
33190;SDS011;19554;42.652;23.364;2022-10-16T09:38:08;6.13;;;4.20;;
33190;SDS011;19554;42.652;23.364;2022-10-16T09:40:38;6.63;;;4.80;;
33190;SDS011;19554;42.652;23.364;2022-10-16T09:46:08;9.55;;;4.30;;
33190;SDS011;19554;42.652;23.364;2022-10-16T09:48:50;6.53;;;4.13;;
33190;SDS011;19554;42.652;23.364;2022-10-16T09:51:20;5.97;;;4.03;;
33190;SDS011;19554;42.652;23.364;2022-10-16T09:53:47;6.40;;;3.92;;
33190;SDS011;19554;42.652;23.364;2022-10-16T09:56:21;4.93;;;3.65;;
33190;SDS011;19554;42.652;23.364;2022-10-16T09:58:52;5.15;;;3.60;;
33190;SDS011;19554;42.652;23.364;2022-10-16T10:01:20;5.10;;;4.22;;
33190;SDS011;19554;42.652;23.364;2022-10-16T10:03:47;6.93;;;4.05;;
33190;SDS011;19554;42.652;23.364;2022-10-16T10:06:25;7.38;;;3.88;;
33190;SDS011;19554;42.652;23.364;2022-10-16T10:08:56;6.90;;;3.88;;
33190;SDS011;19554;42.652;23.364;2022-10-16T10:16:45;10.27;;;4.47;;
33190;SDS011;19554;42.652;23.364;2022-10-16T10:19:18;6.57;;;3.97;;
33190;SDS011;19554;42.652;23.364;2022-10-16T10:21:45;7.32;;;4.90;;
33190;SDS011;19554;42.652;23.364;2022-10-16T10:24:12;7.80;;;4.53;;
33190;SDS011;19554;42.652;23.364;2022-10-16T10:26:50;13.50;;;4.35;;
33190;SDS011;19554;42.652;23.364;2022-10-16T10:32:07;7.70;;;4.28;;
33190;SDS011;19554;42.652;23.364;2022-10-16T10:34:47;8.40;;;4.22;;
33190;SDS011;19554;42.652;23.364;2022-10-16T10:37:39;8.70;;;4.40;;
33190;SDS011;19554;42.652;23.364;2022-10-16T10:42:36;7.18;;;4.63;;
33190;SDS011;19554;42.652;23.364;2022-10-16T10:55:38;6.45;;;3.80;;
33190;SDS011;19554;42.652;23.364;2022-10-16T11:03:44;5.13;;;3.08;;
33190;SDS011;19554;42.652;23.364;2022-10-16T11:06:26;5.55;;;3.05;;
33190;SDS011;19554;42.652;23.364;2022-10-16T11:09:01;4.47;;;3.10;;
33190;SDS011;19554;42.652;23.364;2022-10-16T11:11:42;5.32;;;3.15;;
33190;SDS011;19554;42.652;23.364;2022-10-16T11:14:21;4.20;;;3.22;;
33190;SDS011;19554;42.652;23.364;2022-10-16T11:25:02;6.80;;;3.30;;
33190;SDS011;19554;42.652;23.364;2022-10-16T11:27:47;4.43;;;2.78;;
33190;SDS011;19554;42.652;23.364;2022-10-16T11:35:51;3.28;;;2.72;;
33190;SDS011;19554;42.652;23.364;2022-10-16T11:38:27;4.70;;;3.20;;
33190;SDS011;19554;42.652;23.364;2022-10-16T11:41:00;3.10;;;2.60;;
33190;SDS011;19554;42.652;23.364;2022-10-16T11:43:34;3.95;;;2.58;;
33190;SDS011;19554;42.652;23.364;2022-10-16T11:46:11;4.78;;;3.53;;
33190;SDS011;19554;42.652;23.364;2022-10-16T11:48:56;5.85;;;3.47;;
33190;SDS011;19554;42.652;23.364;2022-10-16T11:54:24;9.68;;;3.45;;
33190;SDS011;19554;42.652;23.364;2022-10-16T11:56:52;11.25;;;5.40;;
33190;SDS011;19554;42.652;23.364;2022-10-16T12:05:40;3.15;;;2.80;;
33190;SDS011;19554;42.652;23.364;2022-10-16T12:10:36;5.05;;;2.67;;
33190;SDS011;19554;42.652;23.364;2022-10-16T12:13:03;5.00;;;3.15;;
33190;SDS011;19554;42.652;23.364;2022-10-16T12:15:31;4.75;;;2.60;;
33190;SDS011;19554;42.652;23.364;2022-10-16T12:17:58;4.13;;;2.70;;
33190;SDS011;19554;42.652;23.364;2022-10-16T12:20:25;5.32;;;2.83;;
33190;SDS011;19554;42.652;23.364;2022-10-16T12:23:05;3.33;;;2.97;;
33190;SDS011;19554;42.652;23.364;2022-10-16T12:25:39;3.85;;;2.90;;
33190;SDS011;19554;42.652;23.364;2022-10-16T12:28:18;4.97;;;3.40;;
33190;SDS011;19554;42.652;23.364;2022-10-16T12:30:53;4.25;;;2.95;;
33190;SDS011;19554;42.652;23.364;2022-10-16T12:33:25;4.47;;;3.00;;
33190;SDS011;19554;42.652;23.364;2022-10-16T12:35:52;9.05;;;2.83;;
33190;SDS011;19554;42.652;23.364;2022-10-16T12:38:29;3.85;;;3.00;;
33190;SDS011;19554;42.652;23.364;2022-10-16T12:41:04;3.38;;;2.45;;
33190;SDS011;19554;42.652;23.364;2022-10-16T12:48:38;5.45;;;2.90;;
33190;SDS011;19554;42.652;23.364;2022-10-16T12:51:12;6.75;;;3.10;;
33190;SDS011;19554;42.652;23.364;2022-10-16T12:54:17;5.15;;;2.63;;
33190;SDS011;19554;42.652;23.364;2022-10-16T12:59:38;26.15;;;3.50;;
33190;SDS011;19554;42.652;23.364;2022-10-16T13:08:05;5.10;;;2.90;;
33190;SDS011;19554;42.652;23.364;2022-10-16T13:10:59;5.90;;;2.67;;
33190;SDS011;19554;42.652;23.364;2022-10-16T13:19:16;3.95;;;3.15;;
33190;SDS011;19554;42.652;23.364;2022-10-16T13:27:45;5.40;;;2.75;;
33190;SDS011;19554;42.652;23.364;2022-10-16T13:30:23;3.60;;;2.53;;
33190;SDS011;19554;42.652;23.364;2022-10-16T13:32:57;5.63;;;3.08;;
33190;SDS011;19554;42.652;23.364;2022-10-16T13:35:56;6.10;;;2.80;;
33190;SDS011;19554;42.652;23.364;2022-10-16T13:38:23;5.45;;;3.38;;
33190;SDS011;19554;42.652;23.364;2022-10-16T13:41:23;6.18;;;3.33;;
33190;SDS011;19554;42.652;23.364;2022-10-16T13:43:46;4.70;;;2.80;;
33190;SDS011;19554;42.652;23.364;2022-10-16T13:46:16;6.47;;;2.97;;
33190;SDS011;19554;42.652;23.364;2022-10-16T13:48:56;5.18;;;2.92;;
33190;SDS011;19554;42.652;23.364;2022-10-16T13:51:22;4.40;;;3.20;;
33190;SDS011;19554;42.652;23.364;2022-10-16T13:53:51;7.82;;;2.80;;
33190;SDS011;19554;42.652;23.364;2022-10-16T13:56:18;7.22;;;3.33;;
33190;SDS011;19554;42.652;23.364;2022-10-16T13:58:46;4.00;;;3.28;;
33190;SDS011;19554;42.652;23.364;2022-10-16T14:01:23;3.85;;;2.60;;
33190;SDS011;19554;42.652;23.364;2022-10-16T14:03:50;4.53;;;3.00;;
33190;SDS011;19554;42.652;23.364;2022-10-16T14:06:17;4.82;;;2.83;;
33190;SDS011;19554;42.652;23.364;2022-10-16T14:08:49;9.02;;;3.58;;
33190;SDS011;19554;42.652;23.364;2022-10-16T14:11:25;6.20;;;3.15;;
33190;SDS011;19554;42.652;23.364;2022-10-16T14:13:51;4.25;;;2.80;;
33190;SDS011;19554;42.652;23.364;2022-10-16T14:16:18;5.82;;;3.00;;
33190;SDS011;19554;42.652;23.364;2022-10-16T14:18:49;6.00;;;3.13;;
33190;SDS011;19554;42.652;23.364;2022-10-16T14:21:22;5.70;;;2.45;;
33190;SDS011;19554;42.652;23.364;2022-10-16T14:23:49;6.38;;;2.88;;
33190;SDS011;19554;42.652;23.364;2022-10-16T14:26:16;6.82;;;3.03;;
33190;SDS011;19554;42.652;23.364;2022-10-16T14:28:44;4.00;;;2.50;;
33190;SDS011;19554;42.652;23.364;2022-10-16T14:31:53;5.55;;;2.88;;
33190;SDS011;19554;42.652;23.364;2022-10-16T14:34:02;9.70;;;3.10;;
33190;SDS011;19554;42.652;23.364;2022-10-16T14:36:28;5.03;;;2.28;;
33190;SDS011;19554;42.652;23.364;2022-10-16T14:39:19;3.83;;;2.92;;
33190;SDS011;19554;42.652;23.364;2022-10-16T14:41:50;3.03;;;2.60;;
33190;SDS011;19554;42.652;23.364;2022-10-16T14:44:21;8.73;;;3.30;;
33190;SDS011;19554;42.652;23.364;2022-10-16T14:47:05;3.90;;;2.60;;
33190;SDS011;19554;42.652;23.364;2022-10-16T14:49:33;13.50;;;2.92;;
33190;SDS011;19554;42.652;23.364;2022-10-16T14:51:58;5.40;;;3.47;;
33190;SDS011;19554;42.652;23.364;2022-10-16T14:54:23;5.80;;;3.10;;
33190;SDS011;19554;42.652;23.364;2022-10-16T14:56:53;5.22;;;2.95;;
33190;SDS011;19554;42.652;23.364;2022-10-16T15:02:02;8.38;;;2.92;;
33190;SDS011;19554;42.652;23.364;2022-10-16T15:04:43;7.70;;;3.10;;
33190;SDS011;19554;42.652;23.364;2022-10-16T15:07:08;8.10;;;2.78;;
33190;SDS011;19554;42.652;23.364;2022-10-16T15:09:34;5.90;;;3.03;;
33190;SDS011;19554;42.652;23.364;2022-10-16T15:11:59;7.65;;;3.15;;
33190;SDS011;19554;42.652;23.364;2022-10-16T15:14:24;8.95;;;3.40;;
33190;SDS011;19554;42.652;23.364;2022-10-16T15:16:50;7.95;;;2.95;;
33190;SDS011;19554;42.652;23.364;2022-10-16T15:19:15;3.55;;;2.97;;
33190;SDS011;19554;42.652;23.364;2022-10-16T15:21:41;6.72;;;3.40;;
33190;SDS011;19554;42.652;23.364;2022-10-16T15:24:09;7.22;;;3.05;;
33190;SDS011;19554;42.652;23.364;2022-10-16T15:26:37;4.22;;;3.03;;
33190;SDS011;19554;42.652;23.364;2022-10-16T15:29:03;6.20;;;3.58;;
33190;SDS011;19554;42.652;23.364;2022-10-16T15:31:28;6.75;;;3.20;;
33190;SDS011;19554;42.652;23.364;2022-10-16T15:33:54;5.60;;;2.97;;
33190;SDS011;19554;42.652;23.364;2022-10-16T15:36:27;6.72;;;3.78;;
33190;SDS011;19554;42.652;23.364;2022-10-16T15:38:54;7.68;;;3.30;;
33190;SDS011;19554;42.652;23.364;2022-10-16T15:41:20;6.13;;;3.60;;
33190;SDS011;19554;42.652;23.364;2022-10-16T15:43:49;4.40;;;3.38;;
33190;SDS011;19554;42.652;23.364;2022-10-16T15:46:15;10.43;;;4.30;;
33190;SDS011;19554;42.652;23.364;2022-10-16T15:48:47;12.48;;;4.53;;
33190;SDS011;19554;42.652;23.364;2022-10-16T15:51:13;14.77;;;4.82;;
33190;SDS011;19554;42.652;23.364;2022-10-16T15:53:39;7.55;;;5.18;;
33190;SDS011;19554;42.652;23.364;2022-10-16T15:56:05;15.60;;;5.65;;
33190;SDS011;19554;42.652;23.364;2022-10-16T15:58:32;9.90;;;6.00;;
33190;SDS011;19554;42.652;23.364;2022-10-16T16:00:58;11.13;;;6.68;;
33190;SDS011;19554;42.652;23.364;2022-10-16T16:03:28;15.80;;;7.45;;
33190;SDS011;19554;42.652;23.364;2022-10-16T16:05:54;16.27;;;7.22;;
33190;SDS011;19554;42.652;23.364;2022-10-16T16:08:20;17.02;;;8.32;;
33190;SDS011;19554;42.652;23.364;2022-10-16T16:10:56;17.58;;;8.23;;
33190;SDS011;19554;42.652;23.364;2022-10-16T16:13:29;16.27;;;8.65;;
33190;SDS011;19554;42.652;23.364;2022-10-16T16:15:55;15.73;;;8.10;;
33190;SDS011;19554;42.652;23.364;2022-10-16T16:18:20;20.95;;;9.70;;
33190;SDS011;19554;42.652;23.364;2022-10-16T16:20:46;17.55;;;8.48;;
33190;SDS011;19554;42.652;23.364;2022-10-16T16:23:12;21.10;;;9.95;;
33190;SDS011;19554;42.652;23.364;2022-10-16T16:25:37;18.10;;;10.23;;
33190;SDS011;19554;42.652;23.364;2022-10-16T16:28:02;24.02;;;11.57;;
33190;SDS011;19554;42.652;23.364;2022-10-16T16:30:28;20.13;;;10.13;;
33190;SDS011;19554;42.652;23.364;2022-10-16T16:32:53;19.25;;;9.63;;
33190;SDS011;19554;42.652;23.364;2022-10-16T16:35:19;17.95;;;8.50;;